Tiempo atmosférico en la estación meteorológica de Alcuescar, Cáceres (460 m.)



Fecha
DESCASC
Temp. máxima en grados centígrados (hora)
DESCASC
Temp. mínima en grados centígrados (hora)
DESCASC
Temp. media en grados centígrados
DESCASC
Racha de viento máxima en m/sg (hora)
DESCASC
Velocidad máxima media en intervalos de 10 minutos(hora)
DESCASC
Precipitaciones diarias en mm
DESCASC
Precipitaciones de 00:00 a 06:00 en mm
DESCASC
Precipitaciones de 06:00 a 12:00 en mm
DESCASC
Precipitaciones de 12:00 a 18:00 en mm
DESCASC
Precipitaciones de 18:00 a 24:00 en mm
DESCASC
02-07-2020 31.6 (16:30) 15.7 (07:10) 23.7 10.28 (19:00) 5.83 (14:20) 0 0 0 0 0
01-07-2020 34.3 (17:30) 16.6 (07:30) 25.4 8.89 (18:20) 5.28 (20:30) 0 0 0 0 0
30-06-2020 36.8 (16:00) 21.1 (00:00) 28.9 9.72 (19:10) 5.83 (20:00) 0 0 0 0 0
29-06-2020 36.7 (18:30) 17.3 (00:00) 27 8.06 (17:10) 4.17 (17:10) 0 0 0 0 0
28-06-2020 34.4 (18:10) 16.2 (00:00) 25.3 6.67 (18:30) 3.61 (00:40) 0 0 0 0 0
27-06-2020 31.7 (18:50) 14.6 (00:00) 23.2 8.06 (16:50) 4.17 (19:00) 0 0 0 0 0
26-06-2020 28.5 (17:10) 12.2 (00:00) 20.3 9.72 (20:50) 6.11 (08:00) 0 0 0 0 0
25-06-2020 32.6 (16:30) 21.1 (00:00) 26.8 10.28 (07:10) 6.11 (19:10) 0 0 0 0 0
24-06-2020 35.1 (17:10) 21.3 (00:00) 28.2 10 (04:30) 5.83 (04:30) 0 0 0 0 0
23-06-2020 39 (17:50) 22.5 (00:00) 30.8 10.28 (16:50) 6.39 (10:10) 0 0 0 0 0
22-06-2020 37.8 (17:20) 16.3 (00:00) 27 7.5 (11:40) 5 (11:40) 0 0 0 0 0
21-06-2020 34 (17:40) 13.6 (00:00) 23.8 7.78 (18:30) 4.17 (18:50) 0 0 0 0 0
20-06-2020 32 (17:30) 14.4 (00:00) 23.2 8.61 (16:10) 4.44 (17:40) 0 0 0 0 0
19-06-2020 29.4 (17:20) 11.6 (00:00) 20.5 7.78 (16:20) 3.89 (17:40) 0 0 0 0 0
18-06-2020 28.6 (18:20) 11.4 (00:00) 20 7.5 (16:40) 4.17 (19:20) 0 0 0 0 0
17-06-2020 26.2 (18:50) 9.8 (00:00) 18 11.11 (15:00) 4.72 (00:30) 0 0 0 0 0
16-06-2020 26.6 (18:20) 12.1 (00:00) 19.4 11.39 (21:10) 7.22 (21:10) 0 0 0 0 0
15-06-2020 26.8 (18:30) 11.4 (00:00) 19.1 8.61 (16:30) 4.72 (16:40) 0 0 0 0 0
14-06-2020 25.4 (17:10) 10.4 (00:00) 17.9 10.28 (19:10) 5.56 (19:30) 0 0 0 0 0
13-06-2020 23 (18:00) 9.4 (00:00) 16.2 8.61 (19:10) 5.28 (19:10) 0 0 0 0 0
12-06-2020 20.8 (17:20) 8.7 (00:00) 14.7 12.5 (18:10) 7.22 (15:40) 0 0 0 0 0
11-06-2020 23.3 (14:40) 9.9 (00:00) 16.6 13.89 (17:10) 8.06 (20:40) 0 0 0 0 0
10-06-2020 27.4 (16:40) 12.2 (00:00) 19.8 14.72 (15:00) 6.39 (16:50) 0 0 0 0 0
09-06-2020 27.5 (16:30) 9.6 (00:00) 18.6 6.67 (18:40) 3.89 (16:40) 0 0 0 0 0
08-06-2020 25.2 (18:20) 7.7 (06:50) 16.5 8.06 (20:10) 4.44 (20:10) 0 0 0 0 0
07-06-2020 24.1 (16:20) 11.3 (00:00) 17.7 10.83 (18:50) 6.39 (19:50) 0 0 0 0 0
06-06-2020 26.6 (18:10) 12.1 (00:00) 19.4 12.78 (16:10) 6.39 (17:30) 0 0 0 0 0
05-06-2020 27.8 (16:40) 11.6 (00:00) 19.7 8.06 (18:30) 4.17 (10:30) 0 0 0 0 0
04-06-2020 24.9 (18:40) 13.3 (00:00) 19.1 12.22 (18:10) 7.5 (16:50) 0.2 0 0 0.2 0
03-06-2020 26.7 (17:30) 15.3 (00:00) 21 11.11 (16:20) 6.67 (16:30) 0 0 0 0 0

Gráficas

Temp. máximas Temp. mínimas Temp. medias Precipitaciones Rachas de viento máximas Velocidades máximas media en intervalos de 10 minutos

Datos horarios

Fecha y hora oficial Temperatura (ºC) Velocidad del viento (km/h) Dirección del viento Racha (km/h) Dirección de racha Precipitación (mm) Presión (hPa) Tendencia (hPa) Humedad (%)
2020-07-02 23:00:00 21.7 12 Oeste 23 Oeste 0 -- -- 32
2020-07-02 22:00:00 24.4 14 Oeste 30 Oeste 0 -- -- 24
2020-07-02 21:00:00 27.6 17 Oeste 33 Oeste 0 -- -- 21
2020-07-02 20:00:00 29.5 18 Noroeste 36 Oeste 0 -- -- 21
2020-07-02 19:00:00 31 19 Oeste 37 Oeste 0 -- -- 22
2020-07-02 18:00:00 31.1 21 Sudoeste 37 Oeste 0 -- -- 22
2020-07-02 17:00:00 31.4 21 Oeste 35 Oeste 0 -- -- 24
2020-07-02 16:00:00 30.8 17 Oeste 36 Oeste 0 -- -- 25
2020-07-02 15:00:00 30.4 19 Oeste 33 Oeste 0 -- -- 22
2020-07-02 14:00:00 29.4 17 Oeste 33 Sudoeste 0 -- -- 26
2020-07-02 13:00:00 28.1 14 Oeste 27 Sudoeste 0 -- -- 37
2020-07-02 12:00:00 26.3 10 Oeste 20 Sudoeste 0 -- -- 47
2020-07-02 11:00:00 24.6 8 Oeste 17 Oeste 0 -- -- 54
2020-07-02 10:00:00 21.9 6 Oeste 15 Noroeste 0 -- -- 63
2020-07-02 09:00:00 19.9 5 Noroeste 8 Noroeste 0 -- -- 70
2020-07-02 08:00:00 17.1 5 Noroeste 8 Noroeste 0 -- -- 81
2020-07-02 07:00:00 15.8 6 Noroeste 9 Oeste 0 -- -- 84
2020-07-02 06:00:00 16.8 5 Noroeste 9 Noroeste 0 -- -- 80
2020-07-02 05:00:00 17.6 7 Noroeste 10 Noroeste 0 -- -- 75
2020-07-02 04:00:00 18.8 6 Noroeste 10 Oeste 0 -- -- 65
2020-07-02 03:00:00 20 7 Oeste 13 Noroeste 0 -- -- 55
2020-07-02 02:00:00 21.4 9 Noroeste 13 Noroeste 0 -- -- 49
2020-07-02 01:00:00 22.6 7 Noroeste 17 Noroeste 0 -- -- 43
2020-07-02 00:00:00 24.1 9 Noroeste 14 Oeste 0 -- -- 38
2020-07-01 23:00:00 26.1 9 Oeste 17 Sudoeste 0 -- -- 32
2020-07-01 22:00:00 28.9 11 Oeste 26 Oeste 0 -- -- 27
2020-07-01 21:00:00 31.8 16 Oeste 29 Oeste 0 -- -- 21
2020-07-01 20:00:00 33 17 Sudoeste 30 Sudoeste 0 -- -- 20
2020-07-01 19:00:00 33.8 16 Sudoeste 32 Sudoeste 0 -- -- 19
2020-07-01 18:00:00 34.1 12 Sudoeste 27 Oeste 0 -- -- 22
2020-07-01 17:00:00 33.6 8 Oeste 28 Oeste 0 -- -- 23
2020-07-01 16:00:00 32.6 10 Noroeste 24 Oeste 0 -- -- 27
2020-07-01 15:00:00 31.4 11 Sudoeste 21 Noroeste 0 -- -- 33
2020-07-01 14:00:00 30 9 Sudoeste 23 Sudoeste 0 -- -- 41
2020-07-01 13:00:00 27.8 9 Oeste 27 Sudoeste 0 -- -- 47
2020-07-01 12:00:00 25.7 9 Oeste 19 Sudoeste 0 -- -- 55
2020-07-01 11:00:00 23.4 12 Sudoeste 19 Sudoeste 0 -- -- 62
2020-07-01 10:00:00 21.7 6 Sur 16 Sudoeste 0 -- -- 69
2020-07-01 09:00:00 19.3 8 Sur 15 Sudoeste 0 -- -- 80
2020-07-01 08:00:00 17.3 9 Sudoeste 13 Sur 0 -- -- 89
2020-07-01 07:00:00 16.9 5 Oeste 12 Sudoeste 0 -- -- 90
2020-07-01 06:00:00 17.8 8 Sudoeste 22 Sudoeste 0 -- -- 86
2020-07-01 05:00:00 18.7 14 Sudoeste 22 Sudoeste 0 -- -- 82
2020-07-01 04:00:00 20.2 9 Sudoeste 14 Sur 0 -- -- 64
2020-07-01 03:00:00 22.2 12 Sudoeste 14 Sudoeste 0 -- -- 50
2020-07-01 02:00:00 22.8 5 Noroeste 7 Noroeste 0 -- -- 45
2020-07-01 01:00:00 23.6 6 Noroeste 13 Oeste 0 -- -- 38
2020-07-01 00:00:00 25.5 6 Noroeste 15 Noroeste 0 -- -- 34
2020-06-30 23:00:00 27.5 10 Noroeste 23 Noroeste 0 -- -- 30
2020-06-30 22:00:00 30.1 17 Oeste 28 Oeste 0 -- -- 26
2020-06-30 21:00:00 32.7 18 Oeste 31 Sudoeste 0 -- -- 23
2020-06-30 20:00:00 34.6 21 Oeste 35 Oeste 0 -- -- 17
2020-06-30 19:00:00 35.5 18 Oeste 34 Oeste 0 -- -- 14
2020-06-30 18:00:00 36.2 16 Oeste 31 Sudoeste 0 -- -- 15
2020-06-30 17:00:00 36.4 18 Sudoeste 34 Sudoeste 0 -- -- 15
2020-06-30 16:00:00 36.8 12 Sur 29 Sudoeste 0 -- -- 15
2020-06-30 15:00:00 35.3 18 Sudoeste 30 Sudoeste 0 -- -- 18
2020-06-30 14:00:00 34.5 12 Oeste 25 Sudoeste 0 -- -- 18
2020-06-30 13:00:00 34 10 Sudoeste 23 Sur 0 -- -- 19
2020-06-30 12:00:00 32.6 9 Sur 19 Sudoeste 0 -- -- 26
2020-06-30 11:00:00 32 10 Sudeste 16 Sudeste 0 -- -- 29
2020-06-30 10:00:00 29.8 5 Sudeste 11 Sudeste 0 -- -- 34
2020-06-30 09:00:00 26.8 2 Sudeste 10 Sudoeste 0 -- -- 39
2020-06-30 08:00:00 23.3 6 Sudoeste 11 Sudoeste 0 -- -- 44
2020-06-30 07:00:00 21.3 0 Calma 6 Noroeste 0 -- -- 53
2020-06-30 06:00:00 21.2 5 Noroeste 6 Noroeste 0 -- -- 54
2020-06-30 05:00:00 21.7 6 Oeste 9 Oeste 0 -- -- 53
2020-06-30 04:00:00 21.9 6 Oeste 10 Oeste 0 -- -- 53
2020-06-30 03:00:00 23.1 8 Noroeste 14 Noroeste 0 -- -- 49
2020-06-30 02:00:00 24.6 8 Noroeste 15 Noroeste 0 -- -- 46
2020-06-30 01:00:00 25.9 9 Noroeste 14 Noroeste 0 -- -- 38
2020-06-30 00:00:00 27.4 9 Noroeste 21 Oeste 0 -- -- 32
2020-06-29 23:00:00 29.5 5 Oeste 8 Noroeste 0 -- -- 25
2020-06-29 22:00:00 32.2 5 Oeste 11 Oeste 0 -- -- 20
2020-06-29 21:00:00 34.8 8 Oeste 16 Oeste 0 -- -- 17
2020-06-29 20:00:00 35.9 8 Sudoeste 19 Oeste 0 -- -- 16
2020-06-29 19:00:00 36.4 8 Noroeste 22 Oeste 0 -- -- 13
2020-06-29 18:00:00 36.5 12 Sudoeste 29 Sudoeste 0 -- -- 16
2020-06-29 17:00:00 35.9 12 Oeste 27 Sudoeste 0 -- -- 18
2020-06-29 16:00:00 36.1 9 Sudoeste 27 Sudoeste 0 -- -- 17
2020-06-29 15:00:00 35 8 Sudoeste 22 Sudoeste 0 -- -- 20
2020-06-29 14:00:00 34.1 7 Oeste 20 Oeste 0 -- -- 23
2020-06-29 13:00:00 33.3 7 Sur 13 Oeste 0 -- -- 23
2020-06-29 12:00:00 31.5 5 Oeste 11 Oeste 0 -- -- 31
2020-06-29 11:00:00 28.5 5 Noroeste 12 Oeste 0 -- -- 45
2020-06-29 10:00:00 24.8 7 Noroeste 13 Oeste 0 -- -- 58
2020-06-29 09:00:00 21.3 9 Oeste 14 Noroeste 0 -- -- 70
2020-06-29 08:00:00 18.8 7 Noroeste 9 Oeste 0 -- -- 79
2020-06-29 07:00:00 17.4 6 Oeste 9 Oeste 0 -- -- 83
2020-06-29 06:00:00 18.4 6 Noroeste 12 Noroeste 0 -- -- 79
2020-06-29 05:00:00 19.2 7 Oeste 9 Noroeste 0 -- -- 75
2020-06-29 04:00:00 20.5 8 Noroeste 13 Oeste 0 -- -- 69
2020-06-29 03:00:00 21.4 8 Noroeste 13 Noroeste 0 -- -- 60
2020-06-29 02:00:00 22.6 8 Oeste 17 Noroeste 0 -- -- 50
2020-06-29 01:00:00 23.8 8 Noroeste 16 Noroeste 0 -- -- 42
2020-06-29 00:00:00 25.3 4 Noroeste 12 Noroeste 0 -- -- 38
2020-06-28 23:00:00 27 7 Noroeste 12 Noroeste 0 -- -- 32
2020-06-28 22:00:00 29.9 6 Noroeste 15 Noroeste 0 -- -- 26
2020-06-28 21:00:00 32.9 8 Noroeste 19 Noroeste 0 -- -- 21
2020-06-28 20:00:00 34.3 6 Noroeste 23 Noroeste 0 -- -- 19
2020-06-28 19:00:00 34.3 11 Noroeste 24 Oeste 0 -- -- 19
2020-06-28 18:00:00 34.2 9 Oeste 21 Noroeste 0 -- -- 18
2020-06-28 17:00:00 33.8 4 Nordeste 20 Noroeste 0 -- -- 20
2020-06-28 16:00:00 33.1 10 Noroeste 21 Sur 0 -- -- 21
2020-06-28 15:00:00 32.3 10 Sudoeste 23 Sudoeste 0 -- -- 22
2020-06-28 14:00:00 30.8 5 Noroeste 18 Oeste 0 -- -- 28
2020-06-28 13:00:00 29.6 6 Oeste 19 Oeste 0 -- -- 37
2020-06-28 12:00:00 28.2 9 Oeste 19 Oeste 0 -- -- 43
2020-06-28 11:00:00 25.7 6 Noroeste 15 Oeste 0 -- -- 53
2020-06-28 10:00:00 22.9 9 Noroeste 15 Oeste 0 -- -- 63
2020-06-28 09:00:00 20.2 8 Noroeste 14 Noroeste 0 -- -- 73
2020-06-28 08:00:00 17.7 5 Oeste 9 Oeste 0 -- -- 82
2020-06-28 07:00:00 16.3 7 Oeste 8 Noroeste 0 -- -- 84
2020-06-28 06:00:00 17.2 4 Noroeste 10 Noroeste 0 -- -- 80
2020-06-28 05:00:00 18 7 Noroeste 15 Noroeste 0 -- -- 76
2020-06-28 04:00:00 19.1 10 Noroeste 15 Oeste 0 -- -- 71
2020-06-28 03:00:00 20 10 Noroeste 19 Noroeste 0 -- -- 65
2020-06-28 02:00:00 21.3 11 Noroeste 17 Noroeste 0 -- -- 58
2020-06-28 01:00:00 22.6 10 Noroeste 20 Noroeste 0 -- -- 53
2020-06-28 00:00:00 23.6 12 Noroeste 19 Oeste 0 -- -- 46
2020-06-27 23:00:00 24.7 8 Oeste 14 Noroeste 0 -- -- 41
2020-06-27 22:00:00 27.5 9 Noroeste 18 Noroeste 0 -- -- 32
2020-06-27 21:00:00 30.2 9 Noroeste 21 Oeste 0 -- -- 26
2020-06-27 20:00:00 31.1 10 Oeste 23 Noroeste 0 -- -- 25
2020-06-27 19:00:00 31.7 15 Oeste 29 Oeste 0 -- -- 25
2020-06-27 18:00:00 31.6 13 Noroeste 26 Oeste 0 -- -- 24
2020-06-27 17:00:00 31.3 8 Sudoeste 29 Noroeste 0 -- -- 25
2020-06-27 16:00:00 30.1 13 Noroeste 27 Oeste 0 -- -- 33
2020-06-27 15:00:00 29 10 Oeste 22 Noroeste 0 -- -- 36
2020-06-27 14:00:00 27.6 11 Noroeste 22 Oeste 0 -- -- 39
2020-06-27 13:00:00 25.7 6 Oeste 19 Oeste 0 -- -- 46
2020-06-27 12:00:00 24 10 Oeste 19 Oeste 0 -- -- 54
2020-06-27 11:00:00 22.2 8 Noroeste 21 Sur 0 -- -- 59
2020-06-27 10:00:00 20.1 7 Noroeste 13 Oeste 0 -- -- 67
2020-06-27 09:00:00 17.9 4 Sudoeste 12 Sudoeste 0 -- -- 76
2020-06-27 08:00:00 15.5 6 Sudoeste 10 Sur 0 -- -- 84
2020-06-27 07:00:00 14.7 4 Noroeste 9 Oeste 0 -- -- 84
2020-06-27 06:00:00 15 7 Oeste 11 Noroeste 0 -- -- 79
2020-06-27 05:00:00 15.9 5 Noroeste 13 Noroeste 0 -- -- 74
2020-06-27 04:00:00 16.4 6 Noroeste 12 Noroeste 0 -- -- 70
2020-06-27 03:00:00 17.4 6 Noroeste 14 Noroeste 0 -- -- 65
2020-06-27 02:00:00 18.3 9 Noroeste 15 Oeste 0 -- -- 60
2020-06-27 01:00:00 19.2 10 Oeste 15 Oeste 0 -- -- 53
2020-06-27 00:00:00 20.7 11 Oeste 17 Oeste 0 -- -- 47
2020-06-26 23:00:00 21.8 8 Oeste 12 Oeste 0 -- -- 38
2020-06-26 22:00:00 23.8 8 Oeste 27 Oeste 0 -- -- 32
2020-06-26 21:00:00 26.2 16 Oeste 35 Oeste 0 -- -- 27
2020-06-26 20:00:00 27.2 19 Sudoeste 32 Sudoeste 0 -- -- 27
2020-06-26 19:00:00 26.6 14 Sudoeste 29 Sur 0 -- -- 27
2020-06-26 18:00:00 27.7 17 Sudoeste 30 Oeste 0 -- -- 22
2020-06-26 17:00:00 28 17 Sudoeste 34 Sudoeste 0 -- -- 21
2020-06-26 16:00:00 27.1 18 Oeste 32 Oeste 0 -- -- 25
2020-06-26 15:00:00 25.9 14 Oeste 33 Sudoeste 0 -- -- 31
2020-06-26 14:00:00 24.8 15 Sudoeste 30 Sudoeste 0 -- -- 40
2020-06-26 13:00:00 24.4 14 Sudoeste 23 Sur 0 -- -- 44
2020-06-26 12:00:00 21.2 12 Sudoeste 24 Sur 0 -- -- 55
2020-06-26 11:00:00 18.4 10 Sudoeste 21 Sudoeste 0 -- -- 67
2020-06-26 10:00:00 15.8 15 Sudoeste 23 Sur 0 -- -- 78
2020-06-26 09:00:00 13.5 12 Sudoeste 29 Sudoeste 0 -- -- 90
2020-06-26 08:00:00 12.2 22 Sudoeste 31 Sudoeste 0 -- -- 97
2020-06-26 07:00:00 12.2 15 Sudoeste 26 Sudoeste 0 -- -- 96
2020-06-26 06:00:00 12.8 17 Sudoeste 28 Sudoeste 0 -- -- 94
2020-06-26 05:00:00 14 14 Sudoeste 22 Sudoeste 0 -- -- 90
2020-06-26 04:00:00 15.7 9 Sudoeste 19 Sudoeste 0 -- -- 83
2020-06-26 03:00:00 18.1 8 Sudoeste 13 Sudoeste 0 -- -- 57
2020-06-26 02:00:00 19.3 9 Noroeste 12 Noroeste 0 -- -- 49
2020-06-26 01:00:00 20.9 9 Oeste 16 Oeste 0 -- -- 41
2020-06-26 00:00:00 22.2 9 Noroeste 19 Oeste 0 -- -- 37
2020-06-25 23:00:00 23.8 12 Oeste 21 Oeste 0 -- -- 34
2020-06-25 22:00:00 26.1 10 Oeste 23 Oeste 0 -- -- 30
2020-06-25 21:00:00 28.8 16 Oeste 32 Sudoeste 0 -- -- 27
2020-06-25 20:00:00 30.9 17 Oeste 35 Oeste 0 -- -- 28
2020-06-25 19:00:00 31.2 20 Sudoeste 34 Sudoeste 0 -- -- 27
2020-06-25 18:00:00 31.9 18 Sudoeste 32 Sudoeste 0 -- -- 25
2020-06-25 17:00:00 32.5 17 Sudoeste 35 Sudoeste 0 -- -- 23
2020-06-25 16:00:00 32.2 14 Sudoeste 30 Sudoeste 0 -- -- 23
2020-06-25 15:00:00 30.8 14 Sudoeste 33 Oeste 0 -- -- 23
2020-06-25 14:00:00 30.8 14 Sur 24 Sudoeste 0 -- -- 23
2020-06-25 13:00:00 29.6 8 Sudoeste 19 Sudoeste 0 -- -- 26
2020-06-25 12:00:00 27.9 9 Oeste 21 Sudoeste 0 -- -- 28
2020-06-25 11:00:00 26.7 9 Sudoeste 19 Sudoeste 0 -- -- 29
2020-06-25 10:00:00 25.4 9 Oeste 24 Oeste 0 -- -- 30
2020-06-25 09:00:00 23.3 5 Noroeste 17 Oeste 0 -- -- 39
2020-06-25 08:00:00 21.2 9 Noroeste 37 Oeste 0 -- -- 51
2020-06-25 07:00:00 21.1 14 Oeste 25 Oeste 0 -- -- 53
2020-06-25 06:00:00 21.6 8 Oeste 23 Sudoeste 0 -- -- 49
2020-06-25 05:00:00 22.9 12 Sudoeste 23 Sudoeste 0 -- -- 38
2020-06-25 04:00:00 22.2 14 Sudoeste 20 Sudoeste 0 -- -- 38
2020-06-25 03:00:00 22.8 6 Sudoeste 9 Sudoeste 0 -- -- 33
2020-06-25 02:00:00 23.8 8 Norte 13 Norte 0 -- -- 30
2020-06-25 01:00:00 24.2 9 Norte 14 Nordeste 0 -- -- 30
2020-06-25 00:00:00 25.1 8 Oeste 15 Noroeste 0 -- -- 35
2020-06-24 23:00:00 26.9 10 Noroeste 17 Noroeste 0 -- -- 33
2020-06-24 22:00:00 29.1 8 Oeste 14 Oeste 0 -- -- 28
2020-06-24 21:00:00 32.1 9 Oeste 19 Oeste 0 -- -- 23
2020-06-24 20:00:00 33.4 14 Sudoeste 21 Sudoeste 0 -- -- 21
2020-06-24 19:00:00 34.2 12 Oeste 27 Sudoeste 0 -- -- 19
2020-06-24 18:00:00 34.4 13 Sudoeste 28 Sudoeste 0 -- -- 18
2020-06-24 17:00:00 34.8 14 Sudoeste 27 Sur 0 -- -- 18
2020-06-24 16:00:00 33.8 9 Sudoeste 26 Oeste 0 -- -- 19
2020-06-24 15:00:00 33.2 11 Sur 28 Sudoeste 0 -- -- 20
2020-06-24 14:00:00 31.9 10 Sudoeste 20 Sudoeste 0 -- -- 23
2020-06-24 13:00:00 29.8 10 Oeste 22 Sudoeste 0 -- -- 28
2020-06-24 12:00:00 28 14 Oeste 30 Oeste 0 -- -- 33
2020-06-24 11:00:00 26.6 13 Oeste 25 Oeste 0 -- -- 37
2020-06-24 10:00:00 23.6 8 Sudoeste 14 Sudoeste 0 -- -- 52
2020-06-24 09:00:00 21.5 4 Sudoeste 15 Sur 0 -- -- 63
2020-06-24 08:00:00 22.3 8 Oeste 30 Sudoeste 0 -- -- 50
2020-06-24 07:00:00 22 13 Sudoeste 26 Oeste 0 -- -- 54
2020-06-24 06:00:00 21.6 12 Sudoeste 25 Sudoeste 0 -- -- 59
2020-06-24 05:00:00 22.5 14 Sudoeste 36 Sudoeste 0 -- -- 53
2020-06-24 04:00:00 23.8 18 Sudoeste 30 Oeste 0 -- -- 48
2020-06-24 03:00:00 25.4 13 Sudoeste 27 Sudoeste 0 -- -- 42
2020-06-24 02:00:00 26.2 6 Oeste 12 Sudoeste 0 -- -- 39
2020-06-24 01:00:00 27.4 9 Sudoeste 19 Sudoeste 0 -- -- 32
2020-06-24 00:00:00 29 14 Sudoeste 25 Sur 0 -- -- 26
2020-06-23 23:00:00 30.5 3 Sudoeste 7 Oeste 0 -- -- 19
2020-06-23 22:00:00 32.3 5 Oeste 10 Oeste 0 -- -- 18
2020-06-23 21:00:00 34.7 8 Oeste 20 Oeste 0 -- -- 15
2020-06-23 20:00:00 37.1 14 Oeste 26 Sur 0 -- -- 12
2020-06-23 19:00:00 38.1 11 Sur 24 Sudeste 0 -- -- 11
2020-06-23 18:00:00 39 10 Sur 26 Sur 0 -- -- 11
2020-06-23 17:00:00 38.4 14 Sudeste 37 Sudeste 0 -- -- 11
2020-06-23 16:00:00 38.7 15 Sudeste 35 Sudeste 0 -- -- 10
2020-06-23 15:00:00 38.1 15 Sudeste 34 Sudeste 0 -- -- 11
2020-06-23 14:00:00 37.3 17 Sudeste 32 Sudeste 0 -- -- 13
2020-06-23 13:00:00 35.9 18 Sudeste 34 Sudeste 0 -- -- 14
2020-06-23 12:00:00 34.5 19 Sudeste 32 Sudeste 0 -- -- 14
2020-06-23 11:00:00 31.9 21 Sudeste 32 Sudeste 0 -- -- 17
2020-06-23 10:00:00 29.8 21 Sudeste 30 Sudeste 0 -- -- 19
2020-06-23 09:00:00 26.6 17 Sudeste 27 Sudeste 0 -- -- 25
2020-06-23 08:00:00 23.7 21 Sudeste 27 Sudeste 0 -- -- 28
2020-06-23 07:00:00 22.7 19 Sudeste 26 Sudeste 0 -- -- 28
2020-06-23 06:00:00 22.5 21 Sudeste 25 Sudeste 0 -- -- 28
2020-06-23 05:00:00 24.7 19 Sudeste 27 Sudeste 0 -- -- 23
2020-06-23 04:00:00 25.5 6 Sudeste 15 Sudeste 0 -- -- 22
2020-06-23 03:00:00 26.1 9 Sudeste 16 Sudeste 0 -- -- 21
2020-06-23 02:00:00 26.9 9 Sudeste 13 Este 0 -- -- 20
2020-06-23 01:00:00 27.5 11 Sudeste 30 Sudeste 0 -- -- 19
2020-06-23 00:00:00 28.2 5 Nordeste 10 Nordeste 0 -- -- 19
2020-06-22 23:00:00 30.1 6 Norte 12 Norte 0 -- -- 17
2020-06-22 22:00:00 32 6 Norte 8 Norte 0 -- -- 16
2020-06-22 21:00:00 36.2 0 Calma 11 Nordeste 0 -- -- 14
2020-06-22 20:00:00 37 5 Norte 12 Norte 0 -- -- 10
2020-06-22 19:00:00 37 7 Este 26 Este 0 -- -- 10
2020-06-22 18:00:00 37.5 6 Norte 25 Sudeste 0 -- -- 9
2020-06-22 17:00:00 37.4 11 Sudeste 23 Sudeste 0 -- -- 10
2020-06-22 16:00:00 37.2 12 Sur 24 Este 0 -- -- 9
2020-06-22 15:00:00 36.6 10 Sudeste 25 Nordeste 0 -- -- 11
2020-06-22 14:00:00 35.7 9 Sudeste 22 Sudeste 0 -- -- 12
2020-06-22 13:00:00 34.3 13 Sudeste 26 Sudeste 0 -- -- 16
2020-06-22 12:00:00 32.5 14 Sudeste 27 Sudeste 0 -- -- 18
2020-06-22 11:00:00 29 4 Nordeste 10 Sudeste 0 -- -- 27
2020-06-22 10:00:00 24 4 Noroeste 9 Oeste 0 -- -- 49
2020-06-22 09:00:00 20.6 5 Oeste 9 Oeste 0 -- -- 65
2020-06-22 08:00:00 17.8 6 Oeste 9 Oeste 0 -- -- 73
2020-06-22 07:00:00 16.8 6 Oeste 8 Oeste 0 -- -- 73
2020-06-22 06:00:00 17.1 7 Oeste 9 Oeste 0 -- -- 66
2020-06-22 05:00:00 17.6 8 Oeste 10 Oeste 0 -- -- 52
2020-06-22 04:00:00 18.3 5 Noroeste 9 Noroeste 0 -- -- 46
2020-06-22 03:00:00 18.7 7 Noroeste 9 Noroeste 0 -- -- 41
2020-06-22 02:00:00 20.1 6 Noroeste 9 Oeste 0 -- -- 37
2020-06-22 01:00:00 21.8 6 Oeste 9 Oeste 0 -- -- 33
2020-06-22 00:00:00 23.4 6 Oeste 10 Oeste 0 -- -- 29
2020-06-21 23:00:00 25.6 7 Noroeste 10 Noroeste 0 -- -- 22
2020-06-21 22:00:00 28.7 5 Noroeste 13 Noroeste 0 -- -- 17
2020-06-21 21:00:00 31.9 8 Noroeste 22 Noroeste 0 -- -- 13
2020-06-21 20:00:00 33 11 Noroeste 24 Oeste 0 -- -- 11
2020-06-21 19:00:00 33.4 10 Noroeste 28 Oeste 0 -- -- 9
2020-06-21 18:00:00 33.4 11 Noroeste 22 Noroeste 0 -- -- 9
2020-06-21 17:00:00 33.1 7 Noroeste 26 Oeste 0 -- -- 12
2020-06-21 16:00:00 32.2 12 Oeste 23 Oeste 0 -- -- 15
2020-06-21 15:00:00 31.1 10 Noroeste 22 Oeste 0 -- -- 19
2020-06-21 14:00:00 30 10 Noroeste 19 Noroeste 0 -- -- 23
2020-06-21 13:00:00 28.3 7 Norte 17 Sudoeste 0 -- -- 28
2020-06-21 12:00:00 26.3 6 Oeste 14 Oeste 0 -- -- 39
2020-06-21 11:00:00 23.4 8 Oeste 14 Noroeste 0 -- -- 48
2020-06-21 10:00:00 20.1 10 Noroeste 17 Noroeste 0 -- -- 61
2020-06-21 09:00:00 17.6 8 Oeste 16 Noroeste 0 -- -- 70
2020-06-21 08:00:00 15.3 4 Noroeste 7 Noroeste 0 -- -- 81
2020-06-21 07:00:00 13.9 5 Noroeste 9 Noroeste 0 -- -- 83
2020-06-21 06:00:00 14.5 8 Norte 9 Norte 0 -- -- 80
2020-06-21 05:00:00 14.9 6 Noroeste 7 Noroeste 0 -- -- 79
2020-06-21 04:00:00 16.5 5 Noroeste 12 Noroeste 0 -- -- 72
2020-06-21 03:00:00 17.5 7 Noroeste 11 Noroeste 0 -- -- 62
2020-06-21 02:00:00 18.8 8 Noroeste 15 Noroeste 0 -- -- 55
2020-06-21 01:00:00 20.5 11 Noroeste 17 Noroeste 0 -- -- 47
2020-06-21 00:00:00 22 9 Noroeste 18 Noroeste 0 -- -- 38
2020-06-20 23:00:00 23.9 12 Oeste 18 Oeste 0 -- -- 30
2020-06-20 22:00:00 26.5 6 Oeste 22 Oeste 0 -- -- 24
2020-06-20 21:00:00 29.9 13 Oeste 28 Oeste 0 -- -- 19
2020-06-20 20:00:00 31.5 11 Oeste 25 Oeste 0 -- -- 17
2020-06-20 19:00:00 31.9 13 Sudoeste 24 Oeste 0 -- -- 15
2020-06-20 18:00:00 32 10 Oeste 25 Oeste 0 -- -- 16
2020-06-20 17:00:00 31.4 10 Sudoeste 31 Oeste 0 -- -- 16
2020-06-20 16:00:00 31.2 8 Sur 23 Sudoeste 0 -- -- 17
2020-06-20 15:00:00 29.9 10 Sudoeste 23 Sudoeste 0 -- -- 17
2020-06-20 14:00:00 29.1 12 Sudoeste 21 Sudoeste 0 -- -- 18
2020-06-20 13:00:00 27.9 12 Sur 19 Sudoeste 0 -- -- 21
2020-06-20 12:00:00 25.6 6 Oeste 14 Sudoeste 0 -- -- 27
2020-06-20 11:00:00 24.6 8 Sudeste 17 Sudeste 0 -- -- 34
2020-06-20 10:00:00 23.1 6 Sudeste 12 Este 0 -- -- 38
2020-06-20 09:00:00 20.5 0 Calma 4 Sudeste 0 -- -- 43
2020-06-20 08:00:00 16.7 2 Norte 4 Noroeste 0 -- -- 57
2020-06-20 07:00:00 14.6 0 Calma 5 Noroeste 0 -- -- 62
2020-06-20 06:00:00 14.6 5 Noroeste 6 Noroeste 0 -- -- 59
2020-06-20 05:00:00 15.4 7 Noroeste 8 Noroeste 0 -- -- 57
2020-06-20 04:00:00 15.4 6 Noroeste -- -- 0 -- -- 56
2020-06-20 03:00:00 16.4 7 Noroeste 9 Noroeste 0 -- -- 56
2020-06-20 02:00:00 17.8 8 Noroeste 10 Noroeste 0 -- -- 46
2020-06-20 01:00:00 19.5 7 Oeste 16 Oeste 0 -- -- 37
2020-06-20 00:00:00 20.3 10 Noroeste 16 Noroeste 0 -- -- 32
2020-06-19 23:00:00 22.3 7 Oeste 15 Sudoeste 0 -- -- 27
2020-06-19 22:00:00 24.6 9 Sudoeste 16 Sudoeste 0 -- -- 21
2020-06-19 21:00:00 27.5 10 Sudoeste 26 Oeste 0 -- -- 16
2020-06-19 20:00:00 28.8 13 Oeste 27 Sur 0 -- -- 12
2020-06-19 19:00:00 29.2 13 Sudoeste 24 Sudoeste 0 -- -- 11
2020-06-19 18:00:00 29.4 12 Oeste 26 Oeste 0 -- -- 10
2020-06-19 17:00:00 29.1 8 Oeste 28 Oeste 0 -- -- 13
2020-06-19 16:00:00 28.2 6 Sur 22 Sudoeste 0 -- -- 19
2020-06-19 15:00:00 27.3 9 Sudoeste 22 Sudoeste 0 -- -- 25
2020-06-19 14:00:00 25.4 9 Oeste 20 Sudoeste 0 -- -- 28
2020-06-19 13:00:00 24.3 10 Sudoeste 20 Sur 0 -- -- 39
2020-06-19 12:00:00 22.3 9 Sudoeste 15 Sur 0 -- -- 46
2020-06-19 11:00:00 20.4 7 Sudoeste 13 Sur 0 -- -- 52
2020-06-19 10:00:00 17.8 7 Sur 12 Sudoeste 0 -- -- 60
2020-06-19 09:00:00 16.2 4 Sudoeste 8 Oeste 0 -- -- 66
2020-06-19 08:00:00 13.4 3 Sudoeste 7 Sudoeste 0 -- -- 78
2020-06-19 07:00:00 11.6 7 Oeste 13 Sudoeste 0 -- -- 83
2020-06-19 06:00:00 12.6 9 Sudoeste 16 Sudoeste 0 -- -- 79
2020-06-19 05:00:00 13.5 6 Sudoeste 10 Sudoeste 0 -- -- 71
2020-06-19 04:00:00 14.3 3 Noroeste 9 Oeste 0 -- -- 65
2020-06-19 03:00:00 15.2 7 Noroeste 16 Noroeste 0 -- -- 56
2020-06-19 02:00:00 16.6 10 Noroeste 19 Noroeste 0 -- -- 53
2020-06-19 01:00:00 18.3 10 Noroeste 19 Noroeste 0 -- -- 49
2020-06-19 00:00:00 19.6 11 Noroeste 18 Oeste 0 -- -- 47
2020-06-18 23:00:00 21.5 12 Oeste 19 Oeste 0 -- -- 40
2020-06-18 22:00:00 23.7 12 Oeste 22 Oeste 0 -- -- 33
2020-06-18 21:00:00 26.5 11 Sudoeste 20 Sudoeste 0 -- -- 28
2020-06-18 20:00:00 27.5 15 Sudoeste 25 Sudoeste 0 -- -- 25
2020-06-18 19:00:00 28 13 Sudoeste 23 Sudoeste 0 -- -- 24
2020-06-18 18:00:00 28.5 8 Sudoeste 26 Oeste 0 -- -- 23
2020-06-18 17:00:00 28.1 10 Oeste 27 Oeste 0 -- -- 24
2020-06-18 16:00:00 27.2 6 Sudoeste 21 Oeste 0 -- -- 26
2020-06-18 15:00:00 26.5 7 Sur 19 Sudoeste 0 -- -- 28
2020-06-18 14:00:00 25.4 9 Sudoeste 21 Sur 0 -- -- 32
2020-06-18 13:00:00 23.9 5 Oeste 15 Sudoeste 0 -- -- 35
2020-06-18 12:00:00 22.5 6 Sudoeste 14 Oeste 0 -- -- 43
2020-06-18 11:00:00 20.4 5 Oeste 12 Sudoeste 0 -- -- 53
2020-06-18 10:00:00 18 4 Noroeste 9 Sudoeste 0 -- -- 60
2020-06-18 09:00:00 14.9 4 Sudoeste 12 Sudoeste 0 -- -- 73
2020-06-18 08:00:00 13.3 0 Calma 8 Sudoeste 0 -- -- 77
2020-06-18 07:00:00 11.6 5 Oeste 8 Sudoeste 0 -- -- 81
2020-06-18 06:00:00 13 5 Sudoeste 7 Sudoeste 0 -- -- 74
2020-06-18 05:00:00 13.6 2 Noroeste 5 Oeste 0 -- -- 72
2020-06-18 04:00:00 13.9 4 Norte 5 Noroeste 0 -- -- 70
2020-06-18 03:00:00 14.6 4 Noroeste 9 Noroeste 0 -- -- 66
2020-06-18 02:00:00 15.4 6 Noroeste 10 Noroeste 0 -- -- 60
2020-06-18 01:00:00 16.9 7 Noroeste 13 Oeste 0 -- -- 53
2020-06-18 00:00:00 18 8 Oeste 17 Oeste 0 -- -- 49
2020-06-17 23:00:00 19.4 9 Oeste 17 Oeste 0 -- -- 43
2020-06-17 22:00:00 21.6 7 Oeste 18 Oeste 0 -- -- 35
2020-06-17 21:00:00 24.5 9 Oeste 22 Oeste 0 -- -- 28
2020-06-17 20:00:00 26 8 Oeste 25 Oeste 0 -- -- 23
2020-06-17 19:00:00 25.9 15 Oeste 28 Oeste 0 -- -- 22
2020-06-17 18:00:00 26 10 Oeste 27 Sudoeste 0 -- -- 20
2020-06-17 17:00:00 25.7 13 Oeste 26 Sudoeste 0 -- -- 22
2020-06-17 16:00:00 25 9 Oeste 27 Oeste 0 -- -- 24
2020-06-17 15:00:00 23.9 11 Oeste 40 Oeste 0 -- -- 29
2020-06-17 14:00:00 22.5 10 Oeste 20 Oeste 0 -- -- 36
2020-06-17 13:00:00 20.8 9 Oeste 21 Oeste 0 -- -- 44
2020-06-17 12:00:00 19.6 10 Oeste 20 Oeste 0 -- -- 50
2020-06-17 11:00:00 17.7 8 Noroeste 17 Oeste 0 -- -- 55
2020-06-17 10:00:00 15.7 9 Oeste 20 Noroeste 0 -- -- 64
2020-06-17 09:00:00 13.7 9 Noroeste 16 Oeste 0 -- -- 71
2020-06-17 08:00:00 11.4 5 Noroeste 9 Noroeste 0 -- -- 83
2020-06-17 07:00:00 9.9 4 Noroeste 10 Oeste 0 -- -- 87
2020-06-17 06:00:00 10.9 7 Noroeste 14 Oeste 0 -- -- 84
2020-06-17 05:00:00 11.7 10 Noroeste 21 Noroeste 0 -- -- 79
2020-06-17 04:00:00 12.6 13 Noroeste 22 Noroeste 0 -- -- 75
2020-06-17 03:00:00 13.8 14 Noroeste 24 Noroeste 0 -- -- 69
2020-06-17 02:00:00 14.9 14 Noroeste 24 Noroeste 0 -- -- 67
2020-06-17 01:00:00 16.3 14 Noroeste 24 Noroeste 0 -- -- 67
2020-06-17 00:00:00 17.4 13 Noroeste 23 Noroeste 0 -- -- 64
2020-06-16 23:00:00 18.7 9 Noroeste 29 Noroeste 0 -- -- 58
2020-06-16 22:00:00 20.5 18 Noroeste 41 Noroeste 0 -- -- 52
2020-06-16 21:00:00 23.2 24 Noroeste 40 Oeste 0 -- -- 46
2020-06-16 20:00:00 24.3 22 Oeste 39 Oeste 0 -- -- 39
2020-06-16 19:00:00 24.9 15 Oeste 39 Oeste 0 -- -- 39
2020-06-16 18:00:00 25.9 19 Oeste 35 Noroeste 0 -- -- 39
2020-06-16 17:00:00 25.5 17 Oeste 40 Oeste 0 -- -- 40
2020-06-16 16:00:00 26.1 18 Oeste 31 Noroeste 0 -- -- 37
2020-06-16 15:00:00 24.9 13 Noroeste 31 Oeste 0 -- -- 43
2020-06-16 14:00:00 24.6 17 Oeste 33 Oeste 0 -- -- 43
2020-06-16 13:00:00 23.7 17 Noroeste 30 Oeste 0 -- -- 44
2020-06-16 12:00:00 22.3 16 Oeste 30 Oeste 0 -- -- 48
2020-06-16 11:00:00 20.8 13 Oeste 23 Oeste 0 -- -- 50
2020-06-16 10:00:00 18.8 12 Oeste 19 Oeste 0 -- -- 57
2020-06-16 09:00:00 16 9 Oeste 15 Oeste 0 -- -- 70
2020-06-16 08:00:00 13.5 9 Noroeste 12 Oeste 0 -- -- 83
2020-06-16 07:00:00 12.1 6 Noroeste 14 Noroeste 0 -- -- 88
2020-06-16 06:00:00 13 9 Noroeste 17 Noroeste 0 -- -- 84
2020-06-16 05:00:00 13.7 9 Noroeste 18 Noroeste 0 -- -- 81
2020-06-16 04:00:00 14.6 10 Noroeste 20 Noroeste 0 -- -- 76
2020-06-16 03:00:00 15.4 11 Noroeste 23 Noroeste 0 -- -- 70
2020-06-16 02:00:00 16.6 14 Noroeste 26 Noroeste 0 -- -- 59
2020-06-16 01:00:00 18.2 14 Noroeste 25 Noroeste 0 -- -- 50
2020-06-16 00:00:00 19.2 11 Noroeste 20 Oeste 0 -- -- 47
2020-06-15 23:00:00 20.3 12 Oeste 22 Oeste 0 -- -- 43
2020-06-15 22:00:00 22.1 11 Oeste 21 Oeste 0 -- -- 36
2020-06-15 21:00:00 23.6 10 Oeste 23 Noroeste 0 -- -- 31
2020-06-15 20:00:00 26 14 Oeste 23 Oeste 0 -- -- 27
2020-06-15 19:00:00 26.6 13 Oeste 28 Noroeste 0 -- -- 26
2020-06-15 18:00:00 26.5 13 Oeste 28 Noroeste 0 -- -- 26
2020-06-15 17:00:00 25.9 13 Sudoeste 31 Sudoeste 0 -- -- 27
2020-06-15 16:00:00 25 15 Noroeste 29 Oeste 0 -- -- 33
2020-06-15 15:00:00 23.9 11 Oeste 28 Oeste 0 -- -- 39
2020-06-15 14:00:00 22.9 12 Oeste 25 Sudoeste 0 -- -- 41
2020-06-15 13:00:00 21.8 13 Sudoeste 23 Oeste 0 -- -- 42
2020-06-15 12:00:00 20.1 11 Oeste 24 Sudoeste 0 -- -- 49
2020-06-15 11:00:00 19.2 9 Sudoeste 18 Sudoeste 0 -- -- 51
2020-06-15 10:00:00 17.4 8 Oeste 13 Oeste 0 -- -- 62
2020-06-15 09:00:00 15.8 4 Oeste 8 Sudoeste 0 -- -- 70
2020-06-15 08:00:00 14 0 Calma 6 Sudoeste 0 -- -- 79
2020-06-15 07:00:00 11.6 0 Calma 3 Sudoeste 0 -- -- 86
2020-06-15 06:00:00 11.5 4 Norte 6 Noroeste 0 -- -- 86
2020-06-15 05:00:00 12.2 5 Norte 10 Noroeste 0 -- -- 84
2020-06-15 04:00:00 12.5 5 Noroeste 8 Noroeste 0 -- -- 83
2020-06-15 03:00:00 13.3 5 Noroeste 11 Noroeste 0 -- -- 79
2020-06-15 02:00:00 14.3 6 Noroeste 15 Noroeste 0 -- -- 75
2020-06-15 01:00:00 15.8 10 Noroeste 20 Oeste 0 -- -- 64
2020-06-15 00:00:00 17 11 Oeste 19 Noroeste 0 -- -- 53
2020-06-14 23:00:00 18.4 10 Oeste 19 Sudoeste 0 -- -- 44
2020-06-14 22:00:00 20.6 13 Oeste 26 Oeste 0 -- -- 37
2020-06-14 21:00:00 23.1 14 Oeste 30 Sudoeste 0 -- -- 29
2020-06-14 20:00:00 24.3 17 Sudoeste 37 Sudoeste 0 -- -- 27
2020-06-14 19:00:00 24.8 16 Oeste 34 Oeste 0 -- -- 26
2020-06-14 18:00:00 25.4 14 Sudoeste 30 Sudoeste 0 -- -- 24
2020-06-14 17:00:00 24.8 16 Sudoeste 33 Sudoeste 0 -- -- 24
2020-06-14 16:00:00 24.5 13 Oeste 31 Sudoeste 0 -- -- 23
2020-06-14 15:00:00 23.5 14 Oeste 32 Oeste 0 -- -- 24
2020-06-14 14:00:00 22.5 14 Oeste 31 Oeste 0 -- -- 29
2020-06-14 13:00:00 21.8 15 Oeste 33 Sudoeste 0 -- -- 39
2020-06-14 12:00:00 21 14 Sudoeste 24 Sudoeste 0 -- -- 48
2020-06-14 11:00:00 20.1 8 Sur 17 Sur 0 -- -- 52
2020-06-14 10:00:00 18.1 3 Oeste 8 Oeste 0 -- -- 59
2020-06-14 09:00:00 15.3 3 Noroeste 7 Sudoeste 0 -- -- 70
2020-06-14 08:00:00 12.5 4 Oeste 7 Sudoeste 0 -- -- 84
2020-06-14 07:00:00 10.5 2 Sudoeste 6 Noroeste 0 -- -- 89
2020-06-14 06:00:00 10.8 5 Noroeste 6 Norte 0 -- -- 87
2020-06-14 05:00:00 11 5 Noroeste 8 Noroeste 0 -- -- 85
2020-06-14 04:00:00 11.4 4 Noroeste 9 Oeste 0 -- -- 83
2020-06-14 03:00:00 11.7 8 Oeste 10 Oeste 0 -- -- 79
2020-06-14 02:00:00 12.4 6 Noroeste 9 Noroeste 0 -- -- 75
2020-06-14 01:00:00 13.7 8 Oeste 12 Noroeste 0 -- -- 65
2020-06-14 00:00:00 14.4 8 Noroeste 10 Noroeste 0 -- -- 59
2020-06-13 23:00:00 16 6 Oeste 9 Oeste 0 -- -- 52
2020-06-13 22:00:00 18.2 4 Noroeste 15 Oeste 0 -- -- 44
2020-06-13 21:00:00 20.7 9 Oeste 27 Oeste 0 -- -- 37
2020-06-13 20:00:00 21.2 15 Oeste 31 Sudoeste 0 -- -- 36
2020-06-13 19:00:00 21.9 10 Oeste 26 Oeste 0 -- -- 34
2020-06-13 18:00:00 23 16 Oeste 30 Oeste 0 -- -- 35
2020-06-13 17:00:00 21.5 12 Sudoeste 29 Oeste 0 -- -- 37
2020-06-13 16:00:00 21.7 12 Oeste 28 Oeste 0 -- -- 41
2020-06-13 15:00:00 20.3 14 Sudoeste 22 Oeste 0 -- -- 47
2020-06-13 14:00:00 19.5 8 Oeste 17 Sudoeste 0 -- -- 49
2020-06-13 13:00:00 19.3 8 Sudoeste 18 Noroeste 0 -- -- 51
2020-06-13 12:00:00 18.5 7 Noroeste 22 Noroeste 0 -- -- 57
2020-06-13 11:00:00 16.8 9 Noroeste 21 Oeste 0 -- -- 61
2020-06-13 10:00:00 14.8 10 Noroeste 16 Noroeste 0 -- -- 73
2020-06-13 09:00:00 13 4 Noroeste 8 Noroeste 0 -- -- 83
2020-06-13 08:00:00 10.8 4 Oeste 8 Oeste 0 -- -- 91
2020-06-13 07:00:00 9.4 0 Calma 13 Oeste 0 -- -- 93
2020-06-13 06:00:00 9.6 8 Oeste 14 Oeste 0 -- -- 93
2020-06-13 05:00:00 10.2 5 Noroeste 17 Noroeste 0 -- -- 90
2020-06-13 04:00:00 10.7 8 Oeste 13 Oeste 0 -- -- 89
2020-06-13 03:00:00 11.1 9 Oeste 18 Oeste 0 -- -- 87
2020-06-13 02:00:00 11.5 6 Noroeste 12 Noroeste 0 -- -- 88
2020-06-13 01:00:00 12.3 8 Oeste 13 Oeste 0 -- -- 85
2020-06-13 00:00:00 11.8 6 Oeste 8 Noroeste 0 -- -- 86
2020-06-12 23:00:00 12.8 5 Noroeste 20 Noroeste 0 -- -- 81
2020-06-12 22:00:00 13.8 14 Noroeste 38 Oeste 0 -- -- 75
2020-06-12 21:00:00 15.8 20 Oeste 36 Oeste 0 -- -- 69
2020-06-12 20:00:00 16 18 Sudoeste 32 Sudoeste 0 -- -- 66
2020-06-12 19:00:00 14.9 11 Sudoeste 45 Oeste 0 -- -- 80
2020-06-12 18:00:00 18.4 18 Sudoeste 37 Sudoeste 0 -- -- 56
2020-06-12 17:00:00 20.1 18 Sudoeste 35 Sudoeste 0 -- -- 49
2020-06-12 16:00:00 18.1 22 Sudoeste 42 Sudoeste 0 -- -- 54
2020-06-12 15:00:00 19.4 25 Sudoeste 39 Oeste 0 -- -- 49
2020-06-12 14:00:00 19.2 19 Oeste 38 Oeste 0 -- -- 53
2020-06-12 13:00:00 17.7 20 Oeste 37 Oeste 0 -- -- 59
2020-06-12 12:00:00 16.6 19 Sudoeste 38 Sudoeste 0 -- -- 62
2020-06-12 11:00:00 15.2 17 Oeste 33 Sudoeste 0 -- -- 68
2020-06-12 10:00:00 14.5 20 Oeste 37 Oeste 0 -- -- 72
2020-06-12 09:00:00 12.3 18 Oeste 30 Sudoeste 0 -- -- 81
2020-06-12 08:00:00 10.2 9 Oeste 19 Sudoeste 0 -- -- 90
2020-06-12 07:00:00 8.8 5 Oeste 17 Sudoeste 0 -- -- 92
2020-06-12 06:00:00 9.2 8 Oeste 19 Sudoeste 0 -- -- 89
2020-06-12 05:00:00 9.6 8 Oeste 18 Oeste 0 -- -- 84
2020-06-12 04:00:00 10 10 Oeste 24 Oeste 0 -- -- 77
2020-06-12 03:00:00 10.9 12 Oeste 24 Oeste 0 -- -- 73
2020-06-12 02:00:00 12.1 17 Oeste 31 Oeste 0 -- -- 73
2020-06-12 01:00:00 13 18 Oeste 33 Oeste 0 -- -- 69
2020-06-12 00:00:00 14.2 20 Oeste 42 Oeste 0 -- -- 63
2020-06-11 23:00:00 15.7 20 Oeste 37 Oeste 0 -- -- 62
2020-06-11 22:00:00 16.2 19 Oeste 43 Oeste 0 -- -- 56
2020-06-11 21:00:00 18.2 25 Oeste 45 Oeste 0 -- -- 55
2020-06-11 20:00:00 18.6 23 Oeste 45 Oeste 0 -- -- 64
2020-06-11 19:00:00 20.2 28 Oeste 48 Oeste 0 -- -- 63
2020-06-11 18:00:00 21.5 24 Oeste 50 Sudoeste 0 -- -- 51
2020-06-11 17:00:00 22.3 28 Oeste 46 Oeste 0 -- -- 47
2020-06-11 16:00:00 22.5 26 Oeste 45 Oeste 0 -- -- 45
2020-06-11 15:00:00 23.1 20 Oeste 41 Oeste 0 -- -- 46
2020-06-11 14:00:00 22.6 22 Oeste 41 Sudoeste 0 -- -- 46
2020-06-11 13:00:00 20.9 17 Oeste 30 Sudoeste 0 -- -- 46
2020-06-11 12:00:00 18.6 13 Oeste 33 Sudoeste 0 -- -- 56
2020-06-11 11:00:00 17 13 Sudoeste 22 Sudoeste 0 -- -- 63
2020-06-11 10:00:00 14.9 11 Sudoeste 22 Sudoeste 0 -- -- 69
2020-06-11 09:00:00 12.7 8 Sudoeste 19 Sudoeste 0 -- -- 82
2020-06-11 08:00:00 10.7 8 Sudoeste 18 Sudoeste 0 -- -- 93
2020-06-11 07:00:00 9.9 9 Sudoeste 17 Sudoeste 0 -- -- 95
2020-06-11 06:00:00 10.4 8 Sudoeste 14 Sudoeste 0 -- -- 93
2020-06-11 05:00:00 10.9 8 Sudoeste 19 Sudoeste 0 -- -- 89
2020-06-11 04:00:00 12.2 15 Sudoeste 19 Sudoeste 0 -- -- 82
2020-06-11 03:00:00 13.3 8 Sudoeste 14 Oeste 0 -- -- 74
2020-06-11 02:00:00 15.3 8 Oeste 19 Oeste 0 -- -- 62
2020-06-11 01:00:00 16.5 10 Oeste 20 Oeste 0 -- -- 59
2020-06-11 00:00:00 18.4 12 Oeste 23 Oeste 0 -- -- 52
2020-06-10 23:00:00 19.8 13 Oeste 23 Oeste 0 -- -- 40
2020-06-10 22:00:00 21.2 10 Oeste 26 Oeste 0 -- -- 29
2020-06-10 21:00:00 24.3 13 Oeste 33 Oeste 0 -- -- 23
2020-06-10 20:00:00 25.8 16 Oeste 34 Sudoeste 0 -- -- 19
2020-06-10 19:00:00 25.8 19 Oeste 33 Oeste 0 -- -- 18
2020-06-10 18:00:00 26.9 19 Sudoeste 41 Oeste 0 -- -- 15
2020-06-10 17:00:00 27.2 20 Oeste 41 Sudoeste 0 -- -- 16
2020-06-10 16:00:00 26.7 19 Sudoeste 36 Sudoeste 0 -- -- 20
2020-06-10 15:00:00 26.4 17 Sudoeste 53 Oeste 0 -- -- 22
2020-06-10 14:00:00 25.8 9 Sudoeste 29 Sudoeste 0 -- -- 24
2020-06-10 13:00:00 25.2 11 Sudoeste 29 Sur 0 -- -- 24
2020-06-10 12:00:00 24 9 Sudoeste 18 Sudeste 0 -- -- 29
2020-06-10 11:00:00 23.7 13 Sudeste 23 Sudeste 0 -- -- 30
2020-06-10 10:00:00 21.5 14 Sudeste 22 Sudeste 0 -- -- 36
2020-06-10 09:00:00 16.9 3 Noroeste 8 Oeste 0 -- -- 52
2020-06-10 08:00:00 14.1 2 Norte 6 Noroeste 0 -- -- 68
2020-06-10 07:00:00 12.3 4 Noroeste 7 Noroeste 0 -- -- 76
2020-06-10 06:00:00 12.9 4 Noroeste 8 Oeste 0 -- -- 72
2020-06-10 05:00:00 13.1 4 Noroeste 8 Oeste 0 -- -- 70
2020-06-10 04:00:00 13.8 7 Oeste 12 Noroeste 0 -- -- 61
2020-06-10 03:00:00 15.2 8 Noroeste 15 Noroeste 0 -- -- 55
2020-06-10 02:00:00 16.2 8 Noroeste 17 Noroeste 0 -- -- 53
2020-06-10 01:00:00 18 12 Noroeste 21 Noroeste 0 -- -- 48
2020-06-10 00:00:00 18.9 13 Noroeste 20 Noroeste 0 -- -- 41
2020-06-09 23:00:00 19.8 9 Oeste 14 Noroeste 0 -- -- 28
2020-06-09 22:00:00 22.3 4 Norte 13 Noroeste 0 -- -- 23
2020-06-09 21:00:00 25.3 8 Noroeste 21 Noroeste 0 -- -- 18
2020-06-09 20:00:00 27.1 6 Oeste 22 Noroeste 0 -- -- 16
2020-06-09 19:00:00 27.3 6 Noroeste 24 Noroeste 0 -- -- 16
2020-06-09 18:00:00 27.1 8 Norte 24 Noroeste 0 -- -- 15
2020-06-09 17:00:00 27.4 10 Noroeste 23 Oeste 0 -- -- 15
2020-06-09 16:00:00 26.7 9 Noroeste 23 Noroeste 0 -- -- 15
2020-06-09 15:00:00 25.8 7 Noroeste 23 Noroeste 0 -- -- 18
2020-06-09 14:00:00 24.8 7 Oeste 18 Noroeste 0 -- -- 20
2020-06-09 13:00:00 24 7 Noroeste 17 Noroeste 0 -- -- 22
2020-06-09 12:00:00 22.9 3 Norte 15 Sudeste 0 -- -- 26
2020-06-09 11:00:00 21.3 4 Norte 12 Noroeste 0 -- -- 30
2020-06-09 10:00:00 18 7 Noroeste 10 Noroeste 0 -- -- 48
2020-06-09 09:00:00 14.2 5 Oeste 10 Noroeste 0 -- -- 61
2020-06-09 08:00:00 11.7 7 Oeste 10 Oeste 0 -- -- 69
2020-06-09 07:00:00 9.6 6 Oeste 8 Oeste 0 -- -- 81
2020-06-09 06:00:00 10.6 5 Oeste 9 Oeste 0 -- -- 66
2020-06-09 05:00:00 11.3 5 Oeste 12 Noroeste 0 -- -- 55
2020-06-09 04:00:00 11.9 3 Norte 10 Noroeste 0 -- -- 53
2020-06-09 03:00:00 12.6 9 Oeste 10 Oeste 0 -- -- 58
2020-06-09 02:00:00 14.1 6 Oeste 10 Oeste 0 -- -- 43
2020-06-09 01:00:00 14.6 4 Oeste 12 Oeste 0 -- -- 46
2020-06-09 00:00:00 16 5 Noroeste 10 Noroeste 0 -- -- 43
2020-06-08 23:00:00 17.7 4 Noroeste 12 Norte 0 -- -- 38
2020-06-08 22:00:00 20.1 9 Norte 17 Noroeste 0 -- -- 31
2020-06-08 21:00:00 22.9 11 Noroeste 29 Noroeste 0 -- -- 25
2020-06-08 20:00:00 24.5 14 Noroeste 27 Noroeste 0 -- -- 22
2020-06-08 19:00:00 24.7 13 Noroeste 25 Oeste 0 -- -- 24
2020-06-08 18:00:00 25 15 Oeste 25 Oeste 0 -- -- 27
2020-06-08 17:00:00 24.4 8 Noroeste 21 Oeste 0 -- -- 33
2020-06-08 16:00:00 23.7 11 Sudoeste 18 Oeste 0 -- -- 40
2020-06-08 15:00:00 22.1 8 Nordeste 15 Este 0 -- -- 47
2020-06-08 14:00:00 21.2 5 Noroeste 14 Norte 0 -- -- 48
2020-06-08 13:00:00 20.4 7 Noroeste 17 Sudoeste 0 -- -- 50
2020-06-08 12:00:00 18.4 6 Oeste 14 Noroeste 0 -- -- 56
2020-06-08 11:00:00 16.1 5 Noroeste 13 Noroeste 0 -- -- 62
2020-06-08 10:00:00 14.1 6 Sudoeste 13 Oeste 0 -- -- 68
2020-06-08 09:00:00 12.4 6 Oeste 13 Oeste 0 -- -- 74
2020-06-08 08:00:00 9.5 0 Calma 4 Oeste 0 -- -- 85
2020-06-08 07:00:00 7.7 4 Oeste 9 Sudoeste 0 -- -- 90
2020-06-08 06:00:00 7.9 6 Oeste 8 Oeste 0 -- -- 88
2020-06-08 05:00:00 8.4 3 Oeste 9 Oeste 0 -- -- 84
2020-06-08 04:00:00 8.8 7 Oeste 12 Noroeste 0 -- -- 82
2020-06-08 03:00:00 9.8 4 Oeste 17 Oeste 0 -- -- 77
2020-06-08 02:00:00 10.8 10 Noroeste 19 Oeste 0 -- -- 74
2020-06-08 01:00:00 12.6 9 Oeste 24 Oeste 0 -- -- 65
2020-06-08 00:00:00 14.4 12 Oeste 21 Oeste 0 -- -- 58
2020-06-07 23:00:00 16 10 Oeste 21 Sudoeste 0 -- -- 62
2020-06-07 22:00:00 18.3 13 Oeste 30 Oeste 0 -- -- 57
2020-06-07 21:00:00 20.1 17 Oeste 37 Oeste 0 -- -- 53
2020-06-07 20:00:00 21.3 18 Oeste 37 Oeste 0 -- -- 52
2020-06-07 19:00:00 21.5 17 Oeste 39 Oeste 0 -- -- 51
2020-06-07 18:00:00 22.7 22 Oeste 37 Oeste 0 -- -- 49
2020-06-07 17:00:00 23.8 20 Oeste 36 Oeste 0 -- -- 47
2020-06-07 16:00:00 23.5 18 Oeste 36 Sudoeste 0 -- -- 49
2020-06-07 15:00:00 22.9 17 Oeste 33 Oeste 0 -- -- 50
2020-06-07 14:00:00 21.7 11 Oeste 26 Sudoeste 0 -- -- 57
2020-06-07 13:00:00 19.7 14 Sudoeste 24 Oeste 0 -- -- 63
2020-06-07 12:00:00 19.1 9 Sudoeste 24 Oeste 0 -- -- 65
2020-06-07 11:00:00 16.9 10 Oeste 18 Sudoeste 0 -- -- 72
2020-06-07 10:00:00 16.2 9 Oeste 19 Oeste 0 -- -- 75
2020-06-07 09:00:00 14.3 7 Oeste 18 Sudoeste 0 -- -- 82
2020-06-07 08:00:00 11.9 9 Sudoeste 18 Oeste 0 -- -- 93
2020-06-07 07:00:00 11.3 6 Oeste 24 Oeste 0 -- -- 93
2020-06-07 06:00:00 12 10 Oeste 22 Sudoeste 0 -- -- 91
2020-06-07 05:00:00 12.1 14 Sudoeste 24 Sudoeste 0 -- -- 89
2020-06-07 04:00:00 12.6 0 Calma 20 Sudoeste 0 -- -- 88
2020-06-07 03:00:00 13.2 6 Oeste 13 Oeste 0 -- -- 83
2020-06-07 02:00:00 14.1 4 Oeste 10 Noroeste 0 -- -- 81
2020-06-07 01:00:00 15.4 8 Noroeste 23 Noroeste 0 -- -- 76
2020-06-07 00:00:00 17.2 12 Noroeste 22 Noroeste 0 -- -- 67
2020-06-06 23:00:00 18.7 12 Noroeste 19 Noroeste 0 -- -- 49
2020-06-06 22:00:00 20.1 10 Oeste 35 Noroeste 0 -- -- 42
2020-06-06 21:00:00 22.6 15 Oeste 29 Oeste 0 -- -- 35
2020-06-06 20:00:00 25 17 Oeste 33 Sudoeste 0 -- -- 31
2020-06-06 19:00:00 26.2 16 Oeste 35 Sudoeste 0 -- -- 29
2020-06-06 18:00:00 26.3 15 Oeste 37 Sudoeste 0 -- -- 26
2020-06-06 17:00:00 25.9 17 Oeste 46 Sudoeste 0 -- -- 29
2020-06-06 16:00:00 25.1 16 Sudoeste 36 Sudoeste 0 -- -- 36
2020-06-06 15:00:00 24.4 20 Sudoeste 32 Sur 0 -- -- 41
2020-06-06 14:00:00 23.2 14 Sudoeste 27 Sudoeste 0 -- -- 42
2020-06-06 13:00:00 21.7 16 Sudoeste 28 Sur 0 -- -- 46
2020-06-06 12:00:00 20.1 15 Sudoeste 25 Sudoeste 0 -- -- 53
2020-06-06 11:00:00 18.2 7 Sur 24 Sur 0 -- -- 65
2020-06-06 10:00:00 16.3 14 Sudoeste 22 Sur 0 -- -- 71
2020-06-06 09:00:00 14.8 4 Sur 14 Sudoeste 0 -- -- 79
2020-06-06 08:00:00 12.7 8 Sudoeste 12 Sudoeste 0 -- -- 87
2020-06-06 07:00:00 12.1 5 Sur 13 Sudoeste 0 -- -- 88
2020-06-06 06:00:00 13 9 Sudoeste 17 Sudoeste 0 -- -- 86
2020-06-06 05:00:00 13.6 4 Sudoeste 15 Sudoeste 0 -- -- 85
2020-06-06 04:00:00 14.7 8 Sudoeste 12 Sudoeste 0 -- -- 82
2020-06-06 03:00:00 16.4 4 Sudoeste 8 Oeste 0 -- -- 72
2020-06-06 02:00:00 17.2 7 Oeste 13 Oeste 0 -- -- 67
2020-06-06 01:00:00 18.6 5 Oeste 12 Sudoeste 0 -- -- 54
2020-06-06 00:00:00 19.8 5 Oeste 12 Oeste 0 -- -- 47
2020-06-05 23:00:00 20.9 6 Oeste 14 Sudoeste 0 -- -- 42
2020-06-05 22:00:00 22.2 6 Sudoeste 17 Sudoeste 0 -- -- 40
2020-06-05 21:00:00 25 11 Sudoeste 24 Sudoeste 0 -- -- 31
2020-06-05 20:00:00 26.6 13 Oeste 26 Oeste 0 -- -- 26
2020-06-05 19:00:00 27.3 9 Oeste 29 Sudoeste 0 -- -- 24
2020-06-05 18:00:00 27.8 9 Oeste 28 Oeste 0 -- -- 21
2020-06-05 17:00:00 27.5 8 Sudoeste 20 Sudeste 0 -- -- 21
2020-06-05 16:00:00 26.9 8 Sur 27 Sur 0 -- -- 25
2020-06-05 15:00:00 25.7 5 Este 13 Sudoeste 0 -- -- 30
2020-06-05 14:00:00 23.9 7 Noroeste 17 Sudoeste 0 -- -- 36
2020-06-05 13:00:00 22.1 7 Sudoeste 18 Sur 0 -- -- 44
2020-06-05 12:00:00 20.2 11 Sur 19 Sur 0 -- -- 46
2020-06-05 11:00:00 17.8 12 Sudoeste 21 Sudoeste 0 -- -- 56
2020-06-05 10:00:00 16.2 13 Sudoeste 19 Sudoeste 0 -- -- 70
2020-06-05 09:00:00 14.5 4 Sudoeste 13 Sudoeste 0 -- -- 75
2020-06-05 08:00:00 13.4 0 Calma 9 Sudoeste 0 -- -- 78
2020-06-05 07:00:00 11.7 7 Sudoeste 13 Sudoeste 0 -- -- 82
2020-06-05 06:00:00 12.1 5 Sudoeste 12 Sudoeste 0 -- -- 82
2020-06-05 05:00:00 11.9 4 Noroeste 6 Norte 0 -- -- 80
2020-06-05 04:00:00 12.7 6 Norte 8 Norte 0 -- -- 77
2020-06-05 03:00:00 13.4 4 Norte 8 Noroeste 0 -- -- 74
2020-06-05 02:00:00 14.3 5 Noroeste 14 Oeste 0 -- -- 68
2020-06-05 01:00:00 15.6 10 Oeste 14 Oeste 0 -- -- 62
2020-06-05 00:00:00 16.9 10 Noroeste 17 Oeste 0 -- -- 55
2020-06-04 23:00:00 18 9 Oeste 15 Oeste 0 -- -- 52
2020-06-04 22:00:00 20 9 Oeste 26 Noroeste 0 -- -- 45
2020-06-04 21:00:00 22.9 17 Noroeste 36 Oeste 0 -- -- 36
2020-06-04 20:00:00 23.9 20 Oeste 37 Noroeste 0 -- -- 38
2020-06-04 19:00:00 23.8 18 Oeste 44 Oeste 0 -- -- 40
2020-06-04 18:00:00 23.9 21 Oeste 39 Oeste 0 -- -- 44
2020-06-04 17:00:00 24.2 22 Oeste 43 Oeste 0 -- -- 49
2020-06-04 16:00:00 23.8 25 Oeste 42 Oeste 0 -- -- 52
2020-06-04 15:00:00 20.7 21 Oeste 33 Oeste 0 -- -- 67
2020-06-04 14:00:00 18.5 14 Noroeste 28 Oeste 0.2 -- -- 82
2020-06-04 13:00:00 19 15 Oeste 32 Oeste 0 -- -- 75
2020-06-04 12:00:00 18.3 14 Oeste 26 Oeste 0 -- -- 76
2020-06-04 11:00:00 17.3 17 Oeste 28 Sudoeste 0 -- -- 81
2020-06-04 10:00:00 16.8 12 Oeste 20 Oeste 0 -- -- 88
2020-06-04 09:00:00 15.3 12 Oeste 21 Oeste 0 -- -- 88
2020-06-04 08:00:00 13.8 10 Oeste 20 Oeste 0 -- -- 95
2020-06-04 07:00:00 13.3 8 Oeste 13 Oeste 0 -- -- 94
2020-06-04 06:00:00 14.3 8 Oeste 15 Oeste 0 -- -- 89
2020-06-04 05:00:00 14.6 10 Oeste 18 Oeste 0 -- -- 88
2020-06-04 04:00:00 15 9 Noroeste 20 Oeste 0 -- -- 87
2020-06-04 03:00:00 15.6 14 Noroeste 21 Oeste 0 -- -- 84
2020-06-04 02:00:00 16.2 9 Oeste 19 Oeste 0 -- -- 80
2020-06-04 01:00:00 17.5 13 Noroeste 24 Oeste 0 -- -- 73
2020-06-04 00:00:00 18.6 13 Noroeste 20 Noroeste 0 -- -- 70
2020-06-03 23:00:00 19.8 12 Oeste 22 Oeste 0 -- -- 60
2020-06-03 22:00:00 21.3 13 Oeste 30 Oeste 0 -- -- 54
2020-06-03 21:00:00 23.5 17 Oeste 32 Noroeste 0 -- -- 46
2020-06-03 20:00:00 25.2 20 Oeste 37 Sudoeste 0 -- -- 42
2020-06-03 19:00:00 26.2 22 Oeste 39 Oeste 0 -- -- 40
2020-06-03 18:00:00 26.4 22 Oeste 40 Sudoeste 0 -- -- 38
2020-06-03 17:00:00 26.5 23 Oeste 40 Sudoeste 0 -- -- 39
2020-06-03 16:00:00 26.3 22 Oeste 37 Oeste 0 -- -- 41
2020-06-03 15:00:00 25.2 18 Oeste 34 Sudoeste 0 -- -- 45
2020-06-03 14:00:00 24.6 18 Sudoeste 35 Sudoeste 0 -- -- 48
2020-06-03 13:00:00 23.7 19 Sudoeste 33 Sudoeste 0 -- -- 52
2020-06-03 12:00:00 22.6 17 Sudoeste 28 Oeste 0 -- -- 56
2020-06-03 11:00:00 22.3 12 Oeste 19 Oeste 0 -- -- 56
2020-06-03 10:00:00 20.8 9 Sudoeste 14 Sudoeste 0 -- -- 64
2020-06-03 09:00:00 18.2 6 Sudoeste 12 Sur 0 -- -- 78
2020-06-03 08:00:00 16.3 5 Sudoeste 10 Sur 0 -- -- 87
2020-06-03 07:00:00 15.4 6 Sudoeste 8 Sudoeste 0 -- -- 88
2020-06-03 06:00:00 15.5 5 Sudoeste 5 Sudoeste 0 -- -- 89
2020-06-03 05:00:00 15.5 0 Calma 4 Oeste 0 -- -- 89
2020-06-03 04:00:00 15.6 4 Noroeste 6 Noroeste 0 -- -- 88
2020-06-03 03:00:00 16.4 5 Noroeste 7 Noroeste 0 -- -- 85
2020-06-03 02:00:00 17.2 6 Noroeste 10 Noroeste 0 -- -- 79
2020-06-03 01:00:00 18.1 7 Noroeste 9 Noroeste 0 -- -- 71
2020-06-03 00:00:00 19.1 4 Oeste 12 Oeste 0 -- -- 62